EDDL/DUS METAR and TAF weather

Enter ICAO airport designator
Station Type Date Time Source
EDDL METAR 2022/01/29 01:50 UTC NOAA

EDDL 290150Z 21014KT 9999 BKN013 06/04 Q1028 NOSIG


Station Type Date Time Source
EDDL Decoded METAR 2022/01/29 01:50 UTC NOAA

Duesseldorf, Germany (EDDL) 51-18N 006-46E 41M
Jan 28, 2022 - 08:50 PM EST / 2022.01.29 0150 UTC
Wind: from the SSW (210 degrees) at 16 MPH (14 KT):0
Visibility: greater than 7 mile(s):0
Sky conditions: mostly cloudy
Temperature: 42 F (6 C)
Dew Point: 39 F (4 C)
Relative Humidity: 86%
Pressure (altimeter): 30.36 in. Hg (1028 hPa)
ob: EDDL 290150Z 21014KT 9999 BKN013 06/04 Q1028 NOSIG
cycle: 2

Station Type Date Time Source
EDDL TAF 2022/01/28 18:39 UTC NOAA

TAF EDDL 281700Z 2818/2924 24007KT 9999 BKN030 PROB30
TEMPO 2818/2906 BKN008
BECMG 2903/2906 23012KT BKN010
TEMPO 2906/2918 4500 -DZ BKN008
BECMG 2912/2915 26015G25KT BKN020
BECMG 2918/2920 32015G25KT
BECMG 2921/2924 28010KT

Example: see airport list